Time;durP1;ratioP1;P1;durP2;ratioP2;P2;SDS_P1;SDS_P2;PMS_P1;PMS_P2;Temp;Humidity;BMP_temperature;BMP_pressure;BME280_temperature;BME280_humidity;BME280_pressure;Samples;Min_cycle;Max_cycle;Signal;HPM_P1;HPM_P2
2022/07/06 00:02:05;;;;;;;;;;;21.80;73.50;;;;;;5052932;28;1177;-66
2022/07/06 00:04:31;;;;;;;;;;;21.80;73.50;;;;;;5052794;28;895;-66
2022/07/06 00:06:57;;;;;;;;;;;21.80;73.50;;;;;;5053057;28;1951;-66
2022/07/06 00:09:22;;;;;;;;;;;21.80;73.40;;;;;;5053052;28;823;-66
2022/07/06 00:11:48;;;;;;;;;;;21.80;73.40;;;;;;5052877;28;1213;-66
2022/07/06 00:14:13;;;;;;;;;;;21.80;73.40;;;;;;5034777;28;862;-66
2022/07/06 00:16:39;;;;;;;;;;;21.80;73.40;;;;;;5034827;28;1235;-66
2022/07/06 00:19:04;;;;;;;;;;;21.80;73.40;;;;;;5052795;28;1087;-66
2022/07/06 00:21:29;;;;;;;;;;;21.80;73.50;;;;;;5052845;28;1300;-66
2022/07/06 00:23:55;;;;;;;;;;;21.80;73.40;;;;;;5052535;28;882;-66
2022/07/06 00:26:20;;;;;;;;;;;21.80;73.50;;;;;;5052577;28;1898;-66
2022/07/06 00:28:46;;;;;;;;;;;21.80;73.50;;;;;;5052741;28;938;-66
2022/07/06 00:31:11;;;;;;;;;;;21.80;73.50;;;;;;5052552;28;1195;-66
2022/07/06 00:33:37;;;;;;;;;;;21.80;73.40;;;;;;5052735;28;910;-66
2022/07/06 00:36:02;;;;;;;;;;;21.80;73.40;;;;;;5052616;28;1046;-66
2022/07/06 00:38:28;;;;;;;;;;;21.80;73.40;;;;;;5034933;28;787;-66
2022/07/06 00:40:53;;;;;;;;;;;21.80;73.50;;;;;;5052664;28;1272;-66
2022/07/06 00:43:19;;;;;;;;;;;21.80;73.40;;;;;;5034916;28;1029;-66
2022/07/06 00:45:44;;;;;;;;;;;21.80;73.40;;;;;;5034418;28;839;-66
2022/07/06 00:48:10;;;;;;;;;;;21.80;73.40;;;;;;5034776;28;1930;-66
2022/07/06 00:50:35;;;;;;;;;;;21.80;73.40;;;;;;5052537;28;1307;-66
2022/07/06 00:53:01;;;;;;;;;;;21.80;73.40;;;;;;5034738;28;1037;-68
2022/07/06 00:55:27;;;;;;;;;;;21.80;73.40;;;;;;5052250;28;854;-68
2022/07/06 00:57:53;;;;;;;;;;;21.80;73.50;;;;;;5034744;28;887;-68
2022/07/06 01:00:19;;;;;;;;;;;21.80;73.40;;;;;;5017919;28;1300;-66
2022/07/06 01:02:45;;;;;;;;;;;21.80;73.50;;;;;;5035023;28;1249;-66
2022/07/06 01:05:11;;;;;;;;;;;21.80;73.50;;;;;;5052269;28;848;-66
2022/07/06 01:07:36;;;;;;;;;;;21.80;73.50;;;;;;5052369;28;1910;-66
2022/07/06 01:10:07;;;;;;;;;;;21.80;73.50;;;;;;5034562;28;938;-66
2022/07/06 01:12:34;;;;;;;;;;;21.80;73.50;;;;;;5052422;28;1176;-66
2022/07/06 01:14:59;;;;;;;;;;;21.80;73.40;;;;;;5051806;28;1186;-66
2022/07/06 01:17:25;;;;;;;;;;;21.80;73.50;;;;;;5034662;28;947;-66
2022/07/06 01:19:50;;;;;;;;;;;21.80;73.40;;;;;;5052241;28;1131;-66
2022/07/06 01:22:16;;;;;;;;;;;21.80;73.40;;;;;;5052200;28;1284;-66
2022/07/06 01:24:41;;;;;;;;;;;21.80;73.50;;;;;;5052800;28;1202;-65
2022/07/06 01:27:07;;;;;;;;;;;21.80;73.40;;;;;;5055806;28;1906;-65
2022/07/06 01:29:33;;;;;;;;;;;21.80;73.40;;;;;;5037873;28;843;-65
2022/07/06 01:31:58;;;;;;;;;;;21.80;73.40;;;;;;5055818;28;1699;-66
2022/07/06 01:34:23;;;;;;;;;;;21.80;73.50;;;;;;5055793;28;812;-66
2022/07/06 01:36:49;;;;;;;;;;;21.80;73.50;;;;;;5055903;28;848;-66
2022/07/06 01:39:14;;;;;;;;;;;21.80;73.40;;;;;;5037661;28;870;-66
2022/07/06 01:41:40;;;;;;;;;;;21.70;73.40;;;;;;5055628;28;1225;-66
2022/07/06 01:44:05;;;;;;;;;;;21.80;73.50;;;;;;5055213;28;899;-66
2022/07/06 01:46:31;;;;;;;;;;;21.80;73.50;;;;;;5037663;28;1954;-66
2022/07/06 01:48:56;;;;;;;;;;;21.80;73.40;;;;;;5037631;28;1065;-66
2022/07/06 01:51:22;;;;;;;;;;;21.80;73.50;;;;;;5037637;28;1199;-67
2022/07/06 01:53:48;;;;;;;;;;;21.80;73.50;;;;;;5055051;28;874;-67
2022/07/06 01:56:13;;;;;;;;;;;21.80;73.40;;;;;;5055253;28;819;-67
2022/07/06 01:58:38;;;;;;;;;;;21.80;73.40;;;;;;5054856;28;878;-67
2022/07/06 02:01:10;;;;;;;;;;;21.80;73.50;;;;;;5054451;28;2181;-67
2022/07/06 02:03:36;;;;;;;;;;;21.80;73.50;;;;;;5055063;28;1906;-67
2022/07/06 02:06:02;;;;;;;;;;;21.80;73.40;;;;;;5055105;28;1592;-67
2022/07/06 02:08:27;;;;;;;;;;;21.80;73.40;;;;;;5037397;28;1957;-67
2022/07/06 02:10:53;;;;;;;;;;;21.80;73.40;;;;;;5055114;28;1373;-67
2022/07/06 02:13:18;;;;;;;;;;;21.80;73.40;;;;;;5054911;28;1541;-67
2022/07/06 02:15:43;;;;;;;;;;;21.80;73.40;;;;;;5054774;28;1383;-68
2022/07/06 02:18:09;;;;;;;;;;;21.80;73.40;;;;;;5055041;28;1076;-67
2022/07/06 02:20:34;;;;;;;;;;;21.80;73.40;;;;;;5054769;28;1560;-67
2022/07/06 02:23:00;;;;;;;;;;;21.80;73.40;;;;;;5054892;28;927;-67
2022/07/06 02:25:25;;;;;;;;;;;21.80;73.50;;;;;;5054703;28;1513;-67
2022/07/06 02:27:51;;;;;;;;;;;21.80;73.50;;;;;;5036866;28;1965;-67
2022/07/06 02:30:16;;;;;;;;;;;21.80;73.40;;;;;;5054784;28;933;-67
2022/07/06 02:32:42;;;;;;;;;;;21.80;73.40;;;;;;5036917;28;1681;-64
2022/07/06 02:35:07;;;;;;;;;;;21.80;73.40;;;;;;5054440;28;871;-67
2022/07/06 02:37:33;;;;;;;;;;;21.80;73.40;;;;;;5053669;28;799;-68
2022/07/06 02:39:58;;;;;;;;;;;21.80;73.40;;;;;;5036892;28;1512;-67
2022/07/06 02:42:23;;;;;;;;;;;21.80;73.40;;;;;;5054466;28;1513;-67
2022/07/06 02:44:49;;;;;;;;;;;21.80;73.40;;;;;;5054128;28;799;-67
2022/07/06 02:47:14;;;;;;;;;;;21.80;73.40;;;;;;5054472;28;1961;-67
2022/07/06 02:49:40;;;;;;;;;;;21.80;73.40;;;;;;5036612;28;1014;-67
2022/07/06 02:52:05;;;;;;;;;;;21.80;73.40;;;;;;5036445;28;1205;-67
2022/07/06 02:54:31;;;;;;;;;;;21.80;73.40;;;;;;5054017;28;956;-66
2022/07/06 02:56:56;;;;;;;;;;;21.80;73.50;;;;;;5054255;28;898;-65
2022/07/06 02:59:21;;;;;;;;;;;21.80;73.40;;;;;;5054170;28;1261;-65
2022/07/06 03:01:47;;;;;;;;;;;21.80;73.40;;;;;;5054038;28;1205;-65
2022/07/06 03:04:12;;;;;;;;;;;21.80;73.50;;;;;;5053822;28;914;-65
2022/07/06 03:06:38;;;;;;;;;;;21.70;73.40;;;;;;5054019;28;1914;-65
2022/07/06 03:09:03;;;;;;;;;;;21.80;73.50;;;;;;5053973;28;875;-66
2022/07/06 03:11:29;;;;;;;;;;;21.80;73.50;;;;;;5053925;28;1196;-66
2022/07/06 03:13:54;;;;;;;;;;;21.80;73.40;;;;;;5053631;28;1014;-66
2022/07/06 03:16:20;;;;;;;;;;;21.80;73.40;;;;;;5053887;28;1515;-65
2022/07/06 03:18:45;;;;;;;;;;;21.80;73.50;;;;;;5035639;28;1443;-67
2022/07/06 03:21:10;;;;;;;;;;;21.80;73.50;;;;;;5053760;28;1507;-67
2022/07/06 03:23:36;;;;;;;;;;;21.80;73.40;;;;;;5053721;28;907;-67
2022/07/06 03:26:01;;;;;;;;;;;21.70;73.30;;;;;;5053423;28;1507;-68
2022/07/06 03:28:27;;;;;;;;;;;21.80;73.40;;;;;;5053485;28;1989;-68
2022/07/06 03:30:52;;;;;;;;;;;21.80;73.40;;;;;;5053601;28;1193;-68
2022/07/06 03:33:18;;;;;;;;;;;21.80;73.40;;;;;;5053651;28;760;-68
2022/07/06 03:35:43;;;;;;;;;;;21.80;73.40;;;;;;5053248;28;795;-68
2022/07/06 03:38:08;;;;;;;;;;;21.70;73.40;;;;;;5035738;28;815;-68
2022/07/06 03:40:34;;;;;;;;;;;21.80;73.40;;;;;;5035531;28;1193;-68
2022/07/06 03:42:59;;;;;;;;;;;21.80;73.40;;;;;;5053376;28;947;-68
2022/07/06 03:45:25;;;;;;;;;;;21.80;73.40;;;;;;5053080;28;914;-68
2022/07/06 03:47:50;;;;;;;;;;;21.80;73.40;;;;;;5035216;28;1960;-68
2022/07/06 03:50:16;;;;;;;;;;;21.80;73.40;;;;;;5053222;28;1084;-68
2022/07/06 03:52:41;;;;;;;;;;;21.80;73.40;;;;;;5035408;28;1160;-68
2022/07/06 03:55:08;;;;;;;;;;;21.80;73.40;;;;;;5035118;28;1010;-68
2022/07/06 03:57:33;;;;;;;;;;;21.80;73.40;;;;;;5035383;28;838;-66
2022/07/06 03:59:59;;;;;;;;;;;21.80;73.40;;;;;;5053284;28;926;-65
2022/07/06 04:02:24;;;;;;;;;;;21.80;73.40;;;;;;5053014;28;1194;-66
2022/07/06 04:04:50;;;;;;;;;;;21.80;73.40;;;;;;5052880;28;1061;-66
2022/07/06 04:07:15;;;;;;;;;;;21.70;73.40;;;;;;5035192;28;1963;-66
2022/07/06 04:09:41;;;;;;;;;;;21.80;73.40;;;;;;5053115;28;808;-66
2022/07/06 04:12:06;;;;;;;;;;;21.80;73.40;;;;;;5052914;28;1210;-67
2022/07/06 04:14:32;;;;;;;;;;;21.70;73.30;;;;;;5034942;28;792;-67
2022/07/06 04:16:57;;;;;;;;;;;21.70;73.30;;;;;;5052942;28;1484;-66
2022/07/06 04:19:23;;;;;;;;;;;21.80;73.40;;;;;;5052948;28;1147;-66
2022/07/06 04:21:48;;;;;;;;;;;21.80;73.40;;;;;;5052953;28;1274;-66
2022/07/06 04:24:14;;;;;;;;;;;21.80;73.40;;;;;;5052575;28;1054;-66
2022/07/06 04:26:39;;;;;;;;;;;21.70;73.40;;;;;;5052707;28;1914;-66
2022/07/06 04:29:04;;;;;;;;;;;21.70;73.40;;;;;;5053051;28;957;-66
2022/07/06 04:31:30;;;;;;;;;;;21.80;73.40;;;;;;5052919;28;1280;-67
2022/07/06 04:33:55;;;;;;;;;;;21.80;73.40;;;;;;5052551;28;1076;-65
2022/07/06 04:36:21;;;;;;;;;;;21.80;73.40;;;;;;5052772;28;840;-65
2022/07/06 04:38:47;;;;;;;;;;;21.80;73.40;;;;;;5035006;28;830;-65
2022/07/06 04:41:12;;;;;;;;;;;21.80;73.40;;;;;;5052647;28;1205;-64
2022/07/06 04:43:38;;;;;;;;;;;21.80;73.40;;;;;;5052912;28;808;-65
2022/07/06 04:46:05;;;;;;;;;;;21.70;73.30;;;;;;5052481;28;788;-65
2022/07/06 04:48:32;;;;;;;;;;;21.80;73.50;;;;;;5052752;28;1965;-66
2022/07/06 04:50:57;;;;;;;;;;;21.80;73.40;;;;;;5034678;28;1305;-67
2022/07/06 04:53:22;;;;;;;;;;;21.80;73.40;;;;;;5053110;28;743;-67
2022/07/06 04:55:48;;;;;;;;;;;21.80;73.40;;;;;;5052289;28;787;-67
2022/07/06 04:58:13;;;;;;;;;;;21.70;73.40;;;;;;5052646;28;922;-67
2022/07/06 05:00:39;;;;;;;;;;;21.80;73.40;;;;;;5055011;28;1161;-67
2022/07/06 05:03:04;;;;;;;;;;;21.80;73.40;;;;;;5056599;28;902;-67
2022/07/06 05:05:30;;;;;;;;;;;21.80;73.40;;;;;;5056054;28;783;-67
2022/07/06 05:07:55;;;;;;;;;;;21.80;73.40;;;;;;5056379;28;1963;-67
2022/07/06 05:10:21;;;;;;;;;;;21.80;73.40;;;;;;5056201;28;870;-67
2022/07/06 05:12:46;;;;;;;;;;;21.80;73.40;;;;;;5056538;28;1286;-67
2022/07/06 05:15:12;;;;;;;;;;;21.70;73.40;;;;;;5055936;28;1516;-67
2022/07/06 05:17:37;;;;;;;;;;;21.80;73.40;;;;;;5056209;28;947;-67
2022/07/06 05:20:03;;;;;;;;;;;21.70;73.40;;;;;;5056125;28;1451;-67
2022/07/06 05:22:28;;;;;;;;;;;21.80;73.40;;;;;;5055968;28;1203;-67
2022/07/06 05:24:54;;;;;;;;;;;21.80;73.40;;;;;;5055780;28;1422;-67
2022/07/06 05:27:19;;;;;;;;;;;21.80;73.40;;;;;;5056028;28;1894;-67
2022/07/06 05:29:45;;;;;;;;;;;21.80;73.40;;;;;;5055955;28;836;-67
2022/07/06 05:32:10;;;;;;;;;;;21.80;73.40;;;;;;5055911;28;1302;-66
2022/07/06 05:34:37;;;;;;;;;;;21.80;73.40;;;;;;5053452;28;1820;-67
2022/07/06 05:37:03;;;;;;;;;;;21.80;73.40;;;;;;5055639;28;1229;-66
2022/07/06 05:39:28;;;;;;;;;;;21.80;73.40;;;;;;5055355;28;1142;-66
2022/07/06 05:41:54;;;;;;;;;;;21.80;73.40;;;;;;5055573;28;1271;-66
2022/07/06 05:44:19;;;;;;;;;;;21.80;73.40;;;;;;5055645;28;802;-65
2022/07/06 05:46:45;;;;;;;;;;;21.80;73.40;;;;;;5037813;28;1902;-66
2022/07/06 05:51:54;;;;;;;;;;;21.70;73.40;;;;;;5055322;28;1472;-67
2022/07/06 05:54:20;;;;;;;;;;;21.80;73.50;;;;;;5055083;28;1157;-66
2022/07/06 05:56:45;;;;;;;;;;;21.80;73.40;;;;;;5055205;28;1303;-67
2022/07/06 05:59:10;;;;;;;;;;;21.80;73.40;;;;;;5055385;28;792;-67
2022/07/06 06:01:36;;;;;;;;;;;21.80;73.40;;;;;;5055104;28;1168;-67
2022/07/06 06:04:01;;;;;;;;;;;21.80;73.40;;;;;;5054720;28;961;-67
2022/07/06 06:06:27;;;;;;;;;;;21.80;73.40;;;;;;5055196;28;1906;-68
2022/07/06 06:08:52;;;;;;;;;;;21.80;73.40;;;;;;5055112;28;796;-68
2022/07/06 06:11:18;;;;;;;;;;;21.80;73.50;;;;;;5054915;28;1243;-68
2022/07/06 06:13:43;;;;;;;;;;;21.80;73.50;;;;;;5054806;28;1220;-66
2022/07/06 06:16:09;;;;;;;;;;;21.80;73.40;;;;;;5037049;28;1207;-67
2022/07/06 06:18:34;;;;;;;;;;;21.80;73.40;;;;;;5054974;28;1170;-67
2022/07/06 06:21:00;;;;;;;;;;;21.80;73.40;;;;;;5054868;28;1210;-67
2022/07/06 06:23:25;;;;;;;;;;;21.80;73.40;;;;;;5054792;28;989;-68
2022/07/06 06:25:50;;;;;;;;;;;21.80;73.40;;;;;;5054635;28;1147;-66
2022/07/06 06:28:16;;;;;;;;;;;21.80;73.50;;;;;;5036932;28;1967;-67
2022/07/06 06:30:41;;;;;;;;;;;21.80;73.40;;;;;;5036709;28;1257;-67
2022/07/06 06:33:11;;;;;;;;;;;21.80;73.50;;;;;;5036765;28;1276;-67
2022/07/06 06:35:37;;;;;;;;;;;21.80;73.50;;;;;;5036443;28;812;-66
2022/07/06 06:38:02;;;;;;;;;;;21.80;73.50;;;;;;5054576;28;763;-66
2022/07/06 06:40:27;;;;;;;;;;;21.80;73.40;;;;;;5054448;28;1164;-68
2022/07/06 06:42:53;;;;;;;;;;;21.80;73.40;;;;;;5054515;28;879;-68
2022/07/06 06:45:18;;;;;;;;;;;21.80;73.50;;;;;;5054199;28;874;-68
2022/07/06 06:47:44;;;;;;;;;;;21.80;74.10;;;;;;5054329;28;1902;-68
2022/07/06 06:50:09;;;;;;;;;;;21.80;73.40;;;;;;5054373;28;1045;-68
2022/07/06 06:52:35;;;;;;;;;;;21.80;73.40;;;;;;5054141;28;1275;-68
2022/07/06 06:55:00;;;;;;;;;;;21.80;73.50;;;;;;5054027;28;919;-67
2022/07/06 06:57:26;;;;;;;;;;;21.80;73.40;;;;;;5054461;28;910;-67
2022/07/06 06:59:51;;;;;;;;;;;21.80;73.40;;;;;;5054159;28;878;-67
2022/07/06 07:02:17;;;;;;;;;;;21.80;73.40;;;;;;5055898;22;2032;-72
2022/07/06 07:04:43;;;;;;;;;;;21.80;73.40;;;;;;5005814;28;1235;-70
2022/07/06 07:07:08;;;;;;;;;;;21.80;73.40;;;;;;5033565;28;1946;-70
2022/07/06 07:09:34;;;;;;;;;;;21.80;73.40;;;;;;5011798;28;824;-68
2022/07/06 07:11:59;;;;;;;;;;;21.80;73.50;;;;;;5012754;28;1278;-68
2022/07/06 07:14:24;;;;;;;;;;;21.80;73.40;;;;;;5012677;28;930;-68
2022/07/06 07:16:50;;;;;;;;;;;21.80;73.40;;;;;;5012786;28;1174;-68
2022/07/06 07:19:15;;;;;;;;;;;21.80;73.40;;;;;;5012675;28;1143;-70
2022/07/06 07:21:41;;;;;;;;;;;21.80;73.40;;;;;;5012941;28;1619;-70
2022/07/06 07:24:07;;;;;;;;;;;21.80;73.40;;;;;;5010690;28;862;-69
2022/07/06 07:26:32;;;;;;;;;;;21.80;73.40;;;;;;5012708;28;1903;-68
2022/07/06 07:28:58;;;;;;;;;;;21.70;73.30;;;;;;5012901;28;784;-69
2022/07/06 07:31:23;;;;;;;;;;;21.80;73.40;;;;;;5013273;28;1014;-69
2022/07/06 07:33:49;;;;;;;;;;;21.80;73.40;;;;;;5013596;28;1212;-69
2022/07/06 07:36:14;;;;;;;;;;;21.80;74.20;;;;;;5013733;28;789;-69
2022/07/06 07:38:40;;;;;;;;;;;21.80;73.40;;;;;;5013846;28;792;-70
2022/07/06 07:41:06;;;;;;;;;;;21.80;73.40;;;;;;5013720;28;1018;-70
2022/07/06 07:43:31;;;;;;;;;;;21.80;73.40;;;;;;5014005;28;1208;-70
2022/07/06 07:45:57;;;;;;;;;;;21.80;73.40;;;;;;5013786;28;1037;-71
2022/07/06 07:48:22;;;;;;;;;;;21.80;73.40;;;;;;5013697;28;1945;-71
2022/07/06 07:50:47;;;;;;;;;;;21.80;73.40;;;;;;5013462;28;1058;-71
2022/07/06 07:53:13;;;;;;;;;;;21.80;73.40;;;;;;5013679;28;1294;-71
2022/07/06 07:55:38;;;;;;;;;;;21.80;73.50;;;;;;5013185;28;954;-71
2022/07/06 07:58:04;;;;;;;;;;;21.80;73.40;;;;;;5013592;28;791;-71
2022/07/06 08:00:29;;;;;;;;;;;21.80;73.40;;;;;;5009451;28;2259;-70
2022/07/06 08:02:55;;;;;;;;;;;21.80;73.40;;;;;;5013435;28;1297;-71
2022/07/06 08:05:20;;;;;;;;;;;21.80;73.40;;;;;;5011803;28;1142;-71
2022/07/06 08:07:46;;;;;;;;;;;21.80;73.40;;;;;;5013370;28;1911;-71
2022/07/06 08:10:11;;;;;;;;;;;21.80;73.40;;;;;;5013436;28;830;-71
2022/07/06 08:12:37;;;;;;;;;;;21.80;73.50;;;;;;5013379;28;1217;-71
2022/07/06 08:15:03;;;;;;;;;;;21.80;73.50;;;;;;5006879;28;1200;-71
2022/07/06 08:17:28;;;;;;;;;;;21.80;73.40;;;;;;5013403;28;784;-71
2022/07/06 08:19:54;;;;;;;;;;;21.80;73.40;;;;;;5011390;28;1905;-71
2022/07/06 08:22:19;;;;;;;;;;;21.80;73.40;;;;;;5012690;28;2074;-73
2022/07/06 08:24:44;;;;;;;;;;;21.80;73.40;;;;;;5011453;28;1043;-73
2022/07/06 08:27:10;;;;;;;;;;;21.80;73.40;;;;;;5013052;28;1953;-73
2022/07/06 08:29:35;;;;;;;;;;;21.80;73.40;;;;;;5011804;28;1279;-72
2022/07/06 08:32:01;;;;;;;;;;;21.80;73.40;;;;;;5013124;28;1366;-71
2022/07/06 08:34:26;;;;;;;;;;;21.80;73.40;;;;;;5013396;28;1147;-71
2022/07/06 08:36:52;;;;;;;;;;;21.80;73.40;;;;;;5017225;28;961;-71
2022/07/06 08:39:17;;;;;;;;;;;21.80;73.40;;;;;;5017097;28;1122;-71
2022/07/06 08:41:45;;;;;;;;;;;21.80;73.40;;;;;;5016974;28;1274;-71
2022/07/06 08:44:10;;;;;;;;;;;21.80;73.40;;;;;;5015550;28;839;-68
2022/07/06 08:46:37;;;;;;;;;;;21.80;73.40;;;;;;5017010;28;1902;-68
2022/07/06 08:49:03;;;;;;;;;;;21.80;73.40;;;;;;5016852;28;1174;-68
2022/07/06 08:51:29;;;;;;;;;;;21.80;73.40;;;;;;5016898;28;906;-68
2022/07/06 08:53:54;;;;;;;;;;;21.80;73.40;;;;;;5015567;28;1182;-68
2022/07/06 08:56:20;;;;;;;;;;;21.80;73.50;;;;;;5015488;28;1089;-69
2022/07/06 08:58:45;;;;;;;;;;;21.80;73.40;;;;;;5016710;28;1091;-69
2022/07/06 09:01:11;;;;;;;;;;;21.80;73.40;;;;;;5016816;28;811;-69
2022/07/06 09:03:36;;;;;;;;;;;21.80;73.40;;;;;;5011663;28;1248;-69
2022/07/06 09:06:02;;;;;;;;;;;21.80;73.40;;;;;;5013083;28;2174;-69
2022/07/06 09:08:28;;;;;;;;;;;21.80;73.40;;;;;;5015340;28;1957;-69
2022/07/06 09:10:53;;;;;;;;;;;21.80;73.40;;;;;;5015370;28;683;-69
2022/07/06 09:13:19;;;;;;;;;;;21.80;73.40;;;;;;5016706;28;1251;-69
2022/07/06 09:15:44;;;;;;;;;;;21.80;73.40;;;;;;5015923;28;952;-69
2022/07/06 09:18:10;;;;;;;;;;;21.80;73.40;;;;;;5012332;28;1942;-72
2022/07/06 09:20:35;;;;;;;;;;;21.80;73.40;;;;;;5012841;28;1122;-72
2022/07/06 09:23:01;;;;;;;;;;;21.80;73.40;;;;;;5008581;28;1351;-72
2022/07/06 09:25:27;;;;;;;;;;;21.80;73.40;;;;;;5009177;28;1232;-72
2022/07/06 09:27:54;;;;;;;;;;;21.80;73.40;;;;;;5006011;28;1906;-72
2022/07/06 09:30:20;;;;;;;;;;;21.80;73.40;;;;;;5003535;28;1298;-72
2022/07/06 09:32:50;;;;;;;;;;;21.80;73.40;;;;;;5006298;28;1303;-72
2022/07/06 09:35:27;;;;;;;;;;;21.80;74.20;;;;;;5005298;28;1240;-72
2022/07/06 09:38:01;;;;;;;;;;;21.80;73.50;;;;;;5006745;28;1225;-72
2022/07/06 09:40:27;;;;;;;;;;;21.80;73.50;;;;;;5006832;28;1216;-72
2022/07/06 09:43:07;;;;;;;;;;;21.80;73.40;;;;;;5011181;28;1228;-70
2022/07/06 09:45:33;;;;;;;;;;;21.80;73.40;;;;;;5015195;28;831;-70
2022/07/06 09:48:04;;;;;;;;;;;21.80;73.40;;;;;;5014699;28;1955;-70
2022/07/06 09:50:31;;;;;;;;;;;21.80;73.50;;;;;;5014674;28;1072;-69
2022/07/06 09:52:56;;;;;;;;;;;21.80;73.40;;;;;;5014356;28;1311;-70
2022/07/06 09:55:22;;;;;;;;;;;21.80;73.50;;;;;;5015545;28;919;-69
2022/07/06 09:57:55;;;;;;;;;;;21.80;73.40;;;;;;4997928;28;1061;-69
2022/07/06 10:00:20;;;;;;;;;;;21.80;73.40;;;;;;5014508;28;691;-69
2022/07/06 10:02:47;;;;;;;;;;;21.80;73.50;;;;;;5014247;28;1204;-69
2022/07/06 10:05:13;;;;;;;;;;;21.80;73.40;;;;;;5012708;28;1806;-69
2022/07/06 10:07:39;;;;;;;;;;;21.80;73.50;;;;;;5014147;28;1907;-69
2022/07/06 10:10:04;;;;;;;;;;;21.80;73.50;;;;;;5013912;28;1197;-70
2022/07/06 10:12:30;;;;;;;;;;;21.80;73.40;;;;;;5013184;28;1362;-70
2022/07/06 10:14:55;;;;;;;;;;;21.80;73.50;;;;;;5013582;28;953;-70
2022/07/06 10:17:21;;;;;;;;;;;21.80;74.20;;;;;;5030398;28;1262;-70
2022/07/06 10:19:46;;;;;;;;;;;21.80;73.40;;;;;;5014163;28;1103;-70
2022/07/06 10:22:12;;;;;;;;;;;21.80;73.40;;;;;;5014107;28;1330;-70
2022/07/06 10:24:43;;;;;;;;;;;21.80;73.50;;;;;;5014882;28;1127;-70
2022/07/06 10:27:09;;;;;;;;;;;21.80;73.40;;;;;;5013911;28;1886;-70
2022/07/06 10:29:34;;;;;;;;;;;21.80;73.40;;;;;;5013753;28;879;-70
2022/07/06 10:32:00;;;;;;;;;;;21.80;74.20;;;;;;5014906;28;1243;-70
2022/07/06 10:34:25;;;;;;;;;;;21.80;73.50;;;;;;5014657;28;927;-70
2022/07/06 10:36:51;;;;;;;;;;;21.80;73.50;;;;;;4997413;28;1290;-70
2022/07/06 10:42:01;;;;;;;;;;;21.80;73.40;;;;;;5014243;28;1265;-70
2022/07/06 10:44:27;;;;;;;;;;;21.80;73.40;;;;;;5014613;28;1080;-68
2022/07/06 10:46:56;;;;;;;;;;;21.80;73.40;;;;;;5009638;28;1954;-67
2022/07/06 10:49:22;;;;;;;;;;;21.80;73.40;;;;;;5003743;28;1235;-68
2022/07/06 10:51:47;;;;;;;;;;;21.80;73.40;;;;;;5005078;28;1289;-68
2022/07/06 10:54:13;;;;;;;;;;;21.80;73.50;;;;;;5003949;28;1244;-69
2022/07/06 10:56:39;;;;;;;;;;;21.80;73.50;;;;;;5001800;28;1127;-69
2022/07/06 10:59:09;;;;;;;;;;;21.80;73.40;;;;;;5002871;28;2033;-70
2022/07/06 11:01:34;;;;;;;;;;;21.70;73.40;;;;;;5014233;28;1317;-70
2022/07/06 11:04:00;;;;;;;;;;;21.80;73.40;;;;;;4998585;28;1283;-70
2022/07/06 11:06:25;;;;;;;;;;;21.80;73.50;;;;;;5011539;28;1297;-70
2022/07/06 11:08:55;;;;;;;;;;;21.80;73.50;;;;;;5009151;28;1878;-69
2022/07/06 11:11:21;;;;;;;;;;;21.80;73.50;;;;;;5011463;28;1185;-70
2022/07/06 11:14:02;;;;;;;;;;;21.80;73.50;;;;;;5012898;28;1185;-70
2022/07/06 11:16:28;;;;;;;;;;;21.80;73.50;;;;;;5012845;28;1475;-70
2022/07/06 11:19:04;;;;;;;;;;;21.80;73.50;;;;;;5012940;28;1111;-70
2022/07/06 11:21:40;;;;;;;;;;;21.80;73.50;;;;;;5012905;28;752;-70
2022/07/06 11:24:06;;;;;;;;;;;21.80;73.40;;;;;;5012521;28;878;-70
2022/07/06 11:26:31;;;;;;;;;;;21.80;73.50;;;;;;5013738;28;1898;-70
2022/07/06 11:28:58;;;;;;;;;;;21.80;73.40;;;;;;5012722;28;827;-71
2022/07/06 11:31:23;;;;;;;;;;;21.80;73.50;;;;;;5012763;28;1065;-70
2022/07/06 11:33:49;;;;;;;;;;;21.80;73.40;;;;;;5012191;28;1208;-70
2022/07/06 11:36:15;;;;;;;;;;;21.80;73.50;;;;;;5013727;28;792;-70
2022/07/06 11:38:41;;;;;;;;;;;21.80;73.50;;;;;;5013943;28;907;-70
2022/07/06 11:41:06;;;;;;;;;;;21.80;73.50;;;;;;5012406;28;848;-70
2022/07/06 11:43:32;;;;;;;;;;;21.80;73.50;;;;;;5012507;28;1274;-70
2022/07/06 11:45:57;;;;;;;;;;;21.80;73.50;;;;;;5012168;28;861;-70
2022/07/06 11:48:22;;;;;;;;;;;21.80;73.50;;;;;;5013401;28;1927;-70
2022/07/06 11:50:58;;;;;;;;;;;21.80;73.40;;;;;;5012389;28;998;-70
2022/07/06 11:53:23;;;;;;;;;;;21.80;73.50;;;;;;5013519;28;1169;-70
2022/07/06 11:55:49;;;;;;;;;;;21.80;73.50;;;;;;5013113;28;1074;-70
2022/07/06 11:58:14;;;;;;;;;;;21.80;73.50;;;;;;5013534;28;975;-70
2022/07/06 12:00:40;;;;;;;;;;;21.80;73.40;;;;;;5013349;28;1062;-70
2022/07/06 12:03:05;;;;;;;;;;;21.80;73.50;;;;;;5013089;28;1204;-70
2022/07/06 12:05:31;;;;;;;;;;;21.80;73.50;;;;;;5013155;28;1006;-70
2022/07/06 12:08:06;;;;;;;;;;;21.80;73.50;;;;;;5013249;28;1968;-70
2022/07/06 12:10:37;;;;;;;;;;;21.80;73.50;;;;;;5011930;28;955;-70
2022/07/06 12:13:03;;;;;;;;;;;21.80;73.50;;;;;;5012038;28;1213;-70
2022/07/06 12:15:29;;;;;;;;;;;21.80;73.50;;;;;;5012364;28;1256;-70
2022/07/06 12:17:54;;;;;;;;;;;21.80;73.40;;;;;;5012004;28;955;-70
2022/07/06 12:20:20;;;;;;;;;;;21.80;73.50;;;;;;5012058;28;1213;-69
2022/07/06 12:22:45;;;;;;;;;;;21.80;73.50;;;;;;5013299;28;1287;-70
2022/07/06 12:25:10;;;;;;;;;;;21.80;73.50;;;;;;5012770;28;1104;-70
2022/07/06 12:27:36;;;;;;;;;;;21.80;73.50;;;;;;5013006;28;1902;-70
2022/07/06 12:30:08;;;;;;;;;;;21.80;73.50;;;;;;5013332;28;997;-70
2022/07/06 12:32:36;;;;;;;;;;;21.80;73.50;;;;;;5011847;28;1197;-70
2022/07/06 12:35:02;;;;;;;;;;;21.80;73.50;;;;;;5012921;28;905;-70
2022/07/06 12:37:27;;;;;;;;;;;21.80;73.50;;;;;;5011871;28;960;-70
2022/07/06 12:39:53;;;;;;;;;;;21.80;73.50;;;;;;5011714;28;1025;-70
2022/07/06 12:42:20;;;;;;;;;;;21.80;73.50;;;;;;5012893;28;1230;-69
2022/07/06 12:44:49;;;;;;;;;;;21.80;73.50;;;;;;5012965;28;843;-70
2022/07/06 12:47:23;;;;;;;;;;;21.80;73.50;;;;;;5011717;28;1906;-70
2022/07/06 12:50:03;;;;;;;;;;;21.70;73.40;;;;;;5012915;28;800;-70
2022/07/06 12:52:28;;;;;;;;;;;21.80;73.50;;;;;;5011742;28;1263;-70
2022/07/06 12:54:53;;;;;;;;;;;21.80;74.20;;;;;;5011176;28;941;-70
2022/07/06 12:57:24;;;;;;;;;;;21.80;73.50;;;;;;5011648;28;1206;-70
2022/07/06 12:59:53;;;;;;;;;;;21.80;73.50;;;;;;5012787;28;824;-70
2022/07/06 13:02:25;;;;;;;;;;;21.80;73.50;;;;;;5029392;22;2012;-68
2022/07/06 13:04:54;;;;;;;;;;;21.80;73.50;;;;;;4990880;28;816;-68
2022/07/06 13:07:20;;;;;;;;;;;21.80;73.50;;;;;;4992056;28;1914;-68
2022/07/06 13:09:45;;;;;;;;;;;21.80;73.50;;;;;;4992860;28;851;-68
2022/07/06 13:12:10;;;;;;;;;;;21.80;73.50;;;;;;4992194;28;1298;-68
2022/07/06 13:14:36;;;;;;;;;;;21.80;73.50;;;;;;4991842;28;816;-68
2022/07/06 13:17:01;;;;;;;;;;;21.80;73.50;;;;;;5011562;28;1115;-68
2022/07/06 13:19:27;;;;;;;;;;;21.80;73.50;;;;;;5003130;28;1146;-68
2022/07/06 13:21:52;;;;;;;;;;;21.80;73.50;;;;;;4995924;28;1304;-68
2022/07/06 13:24:18;;;;;;;;;;;21.80;73.50;;;;;;4996207;28;927;-68
2022/07/06 13:26:44;;;;;;;;;;;21.80;73.50;;;;;;5013720;28;1914;-68
2022/07/06 13:29:10;;;;;;;;;;;21.80;73.50;;;;;;5015067;28;887;-68
2022/07/06 13:31:36;;;;;;;;;;;21.80;73.50;;;;;;5016338;28;812;-68
2022/07/06 13:34:01;;;;;;;;;;;21.80;73.50;;;;;;5003987;28;1508;-67
2022/07/06 13:36:27;;;;;;;;;;;21.80;73.50;;;;;;4994242;28;1188;-68
2022/07/06 13:38:52;;;;;;;;;;;21.80;73.50;;;;;;4994027;28;1358;-68
2022/07/06 13:41:18;;;;;;;;;;;21.80;73.50;;;;;;4980738;28;1190;-67
2022/07/06 13:43:43;;;;;;;;;;;21.80;73.50;;;;;;4976808;28;1177;-68
2022/07/06 13:46:10;;;;;;;;;;;21.80;73.50;;;;;;4976698;28;831;-69
2022/07/06 13:48:36;;;;;;;;;;;21.80;73.50;;;;;;4975599;28;1894;-69
2022/07/06 13:51:01;;;;;;;;;;;21.80;73.50;;;;;;4976623;28;859;-68
2022/07/06 13:53:27;;;;;;;;;;;21.80;73.50;;;;;;4976295;28;1202;-67
2022/07/06 13:55:52;;;;;;;;;;;21.80;73.50;;;;;;4976598;28;871;-67
2022/07/06 13:58:18;;;;;;;;;;;21.80;73.50;;;;;;4976771;28;824;-67
2022/07/06 14:00:43;;;;;;;;;;;21.80;73.50;;;;;;4975420;28;808;-67
2022/07/06 14:03:09;;;;;;;;;;;21.80;73.50;;;;;;4976437;28;1194;-67
2022/07/06 14:05:34;;;;;;;;;;;21.80;73.50;;;;;;4975409;28;887;-67
2022/07/06 14:08:00;;;;;;;;;;;21.80;73.50;;;;;;4998802;28;2136;-67
2022/07/06 14:10:26;;;;;;;;;;;21.80;73.50;;;;;;5000714;28;1199;-67
2022/07/06 14:12:51;;;;;;;;;;;21.80;73.50;;;;;;5004837;28;1294;-67
2022/07/06 14:15:17;;;;;;;;;;;21.80;73.50;;;;;;5002403;28;1079;-67
2022/07/06 14:17:42;;;;;;;;;;;21.80;73.50;;;;;;5001451;28;1421;-66
2022/07/06 14:20:08;;;;;;;;;;;21.80;73.50;;;;;;4999629;28;1072;-66
2022/07/06 14:22:33;;;;;;;;;;;21.80;73.50;;;;;;5006456;28;1324;-69
2022/07/06 14:24:59;;;;;;;;;;;21.80;73.50;;;;;;4992185;28;1215;-68
2022/07/06 14:27:24;;;;;;;;;;;21.80;73.50;;;;;;4984736;28;1902;-68
2022/07/06 14:29:50;;;;;;;;;;;21.80;73.50;;;;;;4985076;28;1292;-65
2022/07/06 14:32:15;;;;;;;;;;;21.80;73.50;;;;;;4984691;28;1273;-65